Time;durP1;ratioP1;P1;durP2;ratioP2;P2;SDS_P1;SDS_P2;PMS_P1;PMS_P2;Temp;Humidity;BMP_temperature;BMP_pressure;BME280_temperature;BME280_humidity;BME280_pressure;Samples;Min_cycle;Max_cycle;Signal;HPM_P1;HPM_P2
2022/01/21 00:01:11;;;;;;;18.67;4.50;;;;;;;0.40;94.18;102653.19;4979284;28;20130;-87
2022/01/21 00:03:38;;;;;;;20.65;5.10;;;;;;;0.35;94.09;102646.47;4975590;28;20074;-85
2022/01/21 00:06:06;;;;;;;13.60;4.28;;;;;;;0.27;94.00;102641.53;4968706;28;20051;-84
2022/01/21 00:08:33;;;;;;;19.88;4.90;;;;;;;0.26;94.36;102634.69;4964760;28;20055;-85
2022/01/21 00:11:01;;;;;;;13.32;4.22;;;;;;;0.22;94.12;102636.50;4965827;28;20059;-85
2022/01/21 00:13:34;;;;;;;20.98;5.95;;;;;;;0.23;94.51;102633.03;4967180;28;20644;-85
2022/01/21 00:16:02;;;;;;;19.25;4.32;;;;;;;0.23;94.08;102645.91;4966077;29;20405;-85
2022/01/21 00:18:29;;;;;;;18.15;4.63;;;;;;;0.23;94.23;102651.06;4960267;29;20059;-84
2022/01/21 00:31:54;;;;;;;22.45;6.05;;;;;;;0.20;94.33;102652.88;4964891;28;20139;-84
2022/01/21 00:34:20;;;;;;;16.30;4.90;;;;;;;0.13;94.71;102639.31;4964047;28;20043;-85
2022/01/21 00:36:47;;;;;;;17.65;5.43;;;;;;;0.18;94.58;102650.34;4965123;28;20079;-85
2022/01/21 00:39:14;;;;;;;26.20;4.85;;;;;;;0.24;94.08;102650.19;4963564;28;20175;-84
2022/01/21 00:41:53;;;;;;;13.20;4.55;;;;;;;0.23;94.12;102645.91;4963039;28;20134;-84
2022/01/21 00:44:20;;;;;;;20.40;5.72;;;;;;;0.21;93.98;102636.53;4963371;28;20083;-84
2022/01/21 00:46:48;;;;;;;17.15;5.15;;;;;;;0.22;94.19;102651.09;4963278;28;20138;-84
2022/01/21 00:49:15;;;;;;;20.92;4.75;;;;;;;0.17;94.57;102653.78;4960758;28;20059;-86
2022/01/21 00:51:42;;;;;;;20.30;4.68;;;;;;;0.17;94.27;102640.91;4961196;29;20043;-85
2022/01/21 00:54:08;;;;;;;13.40;4.93;;;;;;;0.07;94.54;102656.63;4961108;29;20054;-85
2022/01/21 00:56:35;;;;;;;18.35;4.80;;;;;;;0.03;94.75;102658.44;4960337;28;20137;-85
2022/01/21 00:59:05;;;;;;;20.65;4.80;;;;;;;0.02;95.30;102667.06;4962093;28;20047;-86
2022/01/21 01:01:32;;;;;;;20.77;4.60;;;;;;;-0.09;95.33;102661.34;4960686;28;20062;-85
2022/01/21 01:03:59;;;;;;;17.02;6.05;;;;;;;-0.05;95.76;102675.84;4962230;28;20149;-85
2022/01/21 01:06:25;;;;;;;17.75;5.22;;;;;;;-0.09;95.23;102680.22;4960337;28;20107;-85
2022/01/21 01:08:53;;;;;;;20.08;5.55;;;;;;;-0.17;95.59;102686.41;4963281;29;20500;-85
2022/01/21 01:11:28;;;;;;;20.00;5.03;;;;;;;-0.21;96.14;102685.66;4964949;28;20090;-86
2022/01/21 01:22:09;;;;;;;22.77;4.93;;;;;;;-0.26;96.22;102672.03;4966240;29;20068;-84
2022/01/21 01:27:37;;;;;;;16.98;5.47;;;;;;;-0.20;95.81;102671.06;4963526;28;20523;-84
2022/01/21 01:30:05;;;;;;;24.92;6.03;;;;;;;-0.14;95.91;102665.75;4965556;28;20106;-84
2022/01/21 01:32:34;;;;;;;12.57;4.97;;;;;;;-0.07;96.52;102664.72;4965880;28;20051;-83
2022/01/21 01:35:01;;;;;;;19.30;6.00;;;;;;;-0.03;95.47;102666.34;4965517;28;20122;-84
2022/01/21 01:37:39;;;;;;;15.77;5.18;;;;;;;-0.04;95.60;102662.94;4966097;29;20047;-85
2022/01/21 01:40:19;;;;;;;20.02;5.13;;;;;;;0.06;95.25;102663.53;4963711;28;20047;-85
2022/01/21 01:51:02;;;;;;;20.15;5.05;;;;;;;0.23;94.42;102656.22;4960400;29;20578;-84
2022/01/21 01:53:33;;;;;;;20.63;5.05;;;;;;;0.28;93.99;102658.66;4961248;28;20050;-85
2022/01/21 01:56:00;;;;;;;19.58;5.75;;;;;;;0.22;94.39;102654.53;4961050;29;20126;-86
2022/01/21 01:58:27;;;;;;;18.25;5.55;;;;;;;0.19;94.24;102656.31;4962346;28;20083;-85
2022/01/21 02:00:56;;;;;;;18.30;5.03;;;;;;;0.17;94.62;102656.38;4963029;28;20067;-86
2022/01/21 02:03:25;;;;;;;17.05;5.20;;;;;;;0.13;94.61;102652.19;4963027;28;20086;-85
2022/01/21 02:05:51;;;;;;;15.60;5.03;;;;;;;0.13;94.46;102665.06;4959386;29;20055;-86
2022/01/21 02:08:18;;;;;;;22.08;6.07;;;;;;;0.17;94.63;102666.66;4958404;28;20483;-85
2022/01/21 02:10:45;;;;;;;22.02;6.05;;;;;;;0.20;94.92;102661.44;4958984;28;20074;-86
2022/01/21 02:13:23;;;;;;;16.67;4.90;;;;;;;0.23;94.67;102661.34;4960383;28;20047;-87
2022/01/21 02:16:10;;;;;;;20.17;5.32;;;;;;;0.25;94.71;102669.88;4960069;28;20051;-86
2022/01/21 02:21:30;;;;;;;25.05;5.22;;;;;;;0.37;94.55;102663.56;4959647;28;20434;-86
2022/01/21 02:23:57;;;;;;;23.20;5.30;;;;;;;0.39;94.16;102669.53;4959053;28;20043;-86
2022/01/21 02:26:24;;;;;;;20.48;5.95;;;;;;;0.44;94.25;102679.72;4958244;28;20129;-85
2022/01/21 02:28:52;;;;;;;21.83;5.30;;;;;;;0.44;94.23;102666.84;4959018;29;20429;-85
2022/01/21 02:31:19;;;;;;;15.80;4.85;;;;;;;0.40;93.85;102654.94;4957412;28;20511;-86
2022/01/21 02:33:46;;;;;;;19.98;5.28;;;;;;;0.42;94.62;102666.88;4966158;28;20445;-86
2022/01/21 02:36:13;;;;;;;18.58;5.63;;;;;;;0.45;94.13;102660.81;4962000;28;20052;-87
2022/01/21 02:38:41;;;;;;;18.33;5.85;;;;;;;0.41;94.17;102667.75;4971499;28;20065;-86
2022/01/21 02:41:08;;;;;;;21.65;5.60;;;;;;;0.31;94.33;102656.84;4973858;28;20090;-86
2022/01/21 02:43:35;;;;;;;25.38;4.82;;;;;;;0.16;94.20;102648.69;4967087;28;20083;-86
2022/01/21 02:46:05;;;;;;;22.52;5.20;;;;;;;0.27;94.86;102673.28;4964735;28;20062;-86
2022/01/21 02:48:35;;;;;;;18.38;5.38;;;;;;;0.21;95.27;102681.16;4961729;29;20059;-86
2022/01/21 02:51:02;;;;;;;13.48;4.82;;;;;;;0.21;94.58;102678.56;4961208;28;20066;-85
2022/01/21 02:53:39;;;;;;;13.43;5.00;;;;;;;0.22;94.55;102653.69;4960576;28;20047;-85
2022/01/21 02:56:09;;;;;;;21.10;5.05;;;;;;;0.32;94.65;102671.41;4958266;28;20051;-85
2022/01/21 02:58:36;;;;;;;18.17;5.00;;;;;;;0.37;94.58;102681.59;4958260;28;20077;-86
2022/01/21 03:01:05;;;;;;;15.90;4.93;;;;;;;0.33;94.91;102677.41;4957699;28;20134;-84
2022/01/21 03:03:32;;;;;;;16.40;5.00;;;;;;;0.40;95.05;102684.09;4959835;28;20048;-84
2022/01/21 03:06:00;;;;;;;22.52;5.20;;;;;;;0.45;94.19;102687.41;4959835;29;20499;-83
2022/01/21 03:08:28;;;;;;;19.25;5.20;;;;;;;0.43;94.89;102690.91;4961289;28;20051;-85
2022/01/21 03:10:55;;;;;;;18.90;5.00;;;;;;;0.37;94.76;102680.75;4966788;28;20059;-84
2022/01/21 03:13:23;;;;;;;11.13;4.68;;;;;;;0.43;94.58;102681.44;4965580;28;20074;-85
2022/01/21 03:15:50;;;;;;;13.63;5.07;;;;;;;0.51;94.94;102696.66;4964084;28;20102;-86
2022/01/21 03:18:17;;;;;;;14.68;4.80;;;;;;;0.45;95.06;102691.72;4968516;28;20079;-88
2022/01/21 03:20:44;;;;;;;20.30;5.03;;;;;;;0.54;94.51;102696.59;4963878;28;20137;-86
2022/01/21 03:23:16;;;;;;;22.25;5.47;;;;;;;0.60;94.77;102696.44;4966338;29;20078;-86
2022/01/21 03:25:44;;;;;;;20.40;4.93;;;;;;;0.55;94.57;102691.41;4964975;28;20143;-85
2022/01/21 03:28:12;;;;;;;21.17;5.20;;;;;;;0.62;94.33;102689.50;4963243;28;20412;-85
2022/01/21 03:30:41;;;;;;;19.35;4.38;;;;;;;0.60;94.10;102675.81;4963461;28;20051;-85
2022/01/21 03:33:08;;;;;;;23.33;5.00;;;;;;;0.52;93.92;102667.44;4962467;28;20070;-85
2022/01/21 03:35:35;;;;;;;14.50;4.18;;;;;;;0.54;94.19;102673.41;4961885;28;20089;-86
2022/01/21 03:38:02;;;;;;;15.98;4.60;;;;;;;0.59;94.28;102667.25;4962007;28;20075;-86
2022/01/21 03:40:29;;;;;;;20.67;4.70;;;;;;;0.64;94.34;102687.72;4962145;28;20078;-86
2022/01/21 03:42:56;;;;;;;21.65;4.57;;;;;;;0.62;93.89;102689.50;4961773;28;20047;-86
2022/01/21 03:45:23;;;;;;;17.35;4.95;;;;;;;0.65;94.38;102694.56;4980528;23;20511;-83
2022/01/21 03:47:52;;;;;;;19.17;4.80;;;;;;;0.58;94.14;102688.75;4991378;28;20519;-79
2022/01/21 03:50:23;;;;;;;10.35;4.43;;;;;;;0.60;94.50;102688.69;5000888;28;20057;-84
2022/01/21 03:52:50;;;;;;;19.98;4.38;;;;;;;0.55;94.31;102683.66;5003383;28;20050;-84
2022/01/21 03:55:17;;;;;;;16.45;4.50;;;;;;;0.48;94.48;102686.44;5003351;28;20114;-83
2022/01/21 03:57:43;;;;;;;14.88;5.10;;;;;;;0.52;94.50;102688.06;5001674;28;20114;-84
2022/01/21 04:00:13;;;;;;;16.83;4.82;;;;;;;0.42;94.43;102682.34;5001574;28;20134;-83
2022/01/21 04:02:40;;;;;;;16.70;4.30;;;;;;;0.43;94.84;102688.31;5002842;28;20058;-83
2022/01/21 04:05:09;;;;;;;23.08;4.55;;;;;;;0.44;94.65;102690.88;5001145;28;20085;-84
2022/01/21 04:07:36;;;;;;;18.13;5.13;;;;;;;0.43;94.57;102684.03;5000547;28;20086;-83
2022/01/21 04:10:04;;;;;;;15.73;4.40;;;;;;;0.42;94.48;102687.47;4999876;28;20077;-83
2022/01/21 04:12:30;;;;;;;15.55;5.40;;;;;;;0.38;94.90;102695.31;5000013;28;20129;-84
2022/01/21 04:14:58;;;;;;;17.92;5.32;;;;;;;0.36;95.21;102686.78;4999362;28;20084;-83
2022/01/21 04:17:25;;;;;;;16.58;5.22;;;;;;;0.36;95.46;102690.22;4999944;28;20054;-83
2022/01/21 04:19:51;;;;;;;17.60;4.63;;;;;;;0.33;95.15;102687.72;4999519;28;20054;-83
2022/01/21 04:22:20;;;;;;;13.52;4.43;;;;;;;0.32;95.38;102676.56;4998256;28;20142;-84
2022/01/21 04:24:48;;;;;;;18.48;5.85;;;;;;;0.39;95.67;102691.88;4998867;28;20053;-85
2022/01/21 04:27:15;;;;;;;23.75;5.70;;;;;;;0.38;95.52;102698.75;4999767;28;20112;-85
2022/01/21 04:29:42;;;;;;;16.73;5.45;;;;;;;0.41;95.45;102697.81;4999932;28;20134;-83
2022/01/21 04:32:09;;;;;;;23.48;6.00;;;;;;;0.41;94.94;102705.56;5000621;28;20088;-84
2022/01/21 04:34:36;;;;;;;18.05;5.65;;;;;;;0.40;95.32;102709.00;5000782;28;20042;-84
2022/01/21 04:37:06;;;;;;;20.42;5.28;;;;;;;0.39;95.16;102705.59;5000592;28;20046;-85
2022/01/21 04:39:39;;;;;;;20.80;5.68;;;;;;;0.32;95.16;102692.03;5000470;28;20061;-84
2022/01/21 04:47:39;;;;;;;16.35;4.55;;;;;;;0.52;94.64;102699.19;5000359;28;20124;-84
2022/01/21 04:50:11;;;;;;;19.92;5.20;;;;;;;0.60;94.62;102696.44;5000020;28;20133;-83
2022/01/21 04:52:39;;;;;;;27.27;5.20;;;;;;;0.63;94.68;102686.88;4999808;28;20051;-84
2022/01/21 04:55:08;;;;;;;15.18;4.70;;;;;;;0.64;94.65;102686.00;4998845;28;20050;-85
2022/01/21 04:57:35;;;;;;;20.73;4.70;;;;;;;0.73;94.22;102679.75;4998673;28;20054;-83
2022/01/21 05:00:02;;;;;;;19.80;5.18;;;;;;;0.68;94.20;102688.50;4998984;28;20496;-83
2022/01/21 05:02:29;;;;;;;21.77;5.10;;;;;;;0.75;93.95;102682.28;4998804;28;20054;-82
2022/01/21 05:04:56;;;;;;;15.55;4.78;;;;;;;0.65;94.31;102692.00;4999138;28;20588;-83
2022/01/21 05:07:25;;;;;;;17.95;4.72;;;;;;;0.68;94.08;102699.66;4999065;28;20058;-84
2022/01/21 05:09:52;;;;;;;20.65;5.82;;;;;;;0.71;93.92;102696.13;4999321;28;20110;-84
2022/01/21 05:12:22;;;;;;;18.23;6.57;;;;;;;0.63;94.43;102692.03;5001843;28;20094;-83
2022/01/21 05:15:04;;;;;;;18.70;5.47;;;;;;;0.61;94.48;102692.97;5013225;28;20061;-83
2022/01/21 05:17:31;;;;;;;21.55;5.40;;;;;;;0.60;94.33;102688.69;5013967;28;20130;-84
2022/01/21 05:19:58;;;;;;;16.85;5.78;;;;;;;0.56;94.73;102682.78;5014802;28;20045;-84
2022/01/21 05:22:24;;;;;;;19.90;6.25;;;;;;;0.52;94.83;102690.63;5006788;28;20074;-81
2022/01/21 05:24:51;;;;;;;18.70;6.35;;;;;;;0.50;95.33;102700.97;5000666;28;20129;-84
2022/01/21 05:27:19;;;;;;;24.20;6.10;;;;;;;0.60;94.92;102699.00;4999589;28;20456;-84
2022/01/21 05:29:46;;;;;;;22.98;6.05;;;;;;;0.57;95.24;102694.78;4999943;28;20058;-84
2022/01/21 05:32:19;;;;;;;19.23;5.88;;;;;;;0.58;94.79;102698.19;5001334;28;20077;-84
2022/01/21 05:34:45;;;;;;;20.67;5.43;;;;;;;0.57;94.81;102697.34;5000833;28;20054;-83
2022/01/21 05:37:12;;;;;;;20.92;6.30;;;;;;;0.64;94.84;102687.72;5000458;28;20489;-83
2022/01/21 05:39:39;;;;;;;23.67;6.00;;;;;;;0.62;94.74;102704.97;5014847;28;20061;-82
2022/01/21 05:42:07;;;;;;;17.77;5.63;;;;;;;0.61;95.35;102706.69;5015736;28;20058;-83
2022/01/21 05:47:19;;;;;;;19.60;6.40;;;;;;;0.51;95.36;102722.44;5009981;28;20069;-85
2022/01/21 05:49:46;;;;;;;21.52;5.80;;;;;;;0.45;95.38;102718.31;5004655;28;20061;-85
2022/01/21 05:52:17;;;;;;;26.17;6.30;;;;;;;0.49;95.88;102709.59;5004695;28;20054;-85
2022/01/21 05:54:46;;;;;;;19.23;6.18;;;;;;;0.48;96.03;102712.22;5004651;28;20053;-84
2022/01/21 05:57:15;;;;;;;27.98;6.95;;;;;;;0.46;95.88;102719.16;5003372;28;20059;-84
2022/01/21 05:59:43;;;;;;;21.58;6.68;;;;;;;0.51;95.63;102722.44;5001644;28;20054;-86
2022/01/21 06:02:12;;;;;;;23.85;7.20;;;;;;;0.44;95.39;102733.81;5001068;28;20060;-86
2022/01/21 06:04:42;;;;;;;23.30;7.00;;;;;;;0.40;95.85;102719.31;5001144;28;20129;-85
2022/01/21 06:07:10;;;;;;;23.38;6.97;;;;;;;0.36;95.80;102720.28;5000193;28;20046;-85
2022/01/21 06:09:37;;;;;;;28.67;7.32;;;;;;;0.40;95.98;102720.16;4998316;28;20096;-83
2022/01/21 06:12:05;;;;;;;17.80;7.28;;;;;;;0.43;96.20;102719.25;4997842;28;20054;-84
2022/01/21 06:14:32;;;;;;;27.67;8.68;;;;;;;0.44;95.95;102716.63;4997589;28;20129;-83
2022/01/21 06:17:00;;;;;;;22.13;7.55;;;;;;;0.39;96.10;102715.03;4998869;28;20114;-85
2022/01/21 06:19:27;;;;;;;24.90;8.00;;;;;;;0.47;95.52;102742.31;5000019;28;20081;-86
2022/01/21 06:21:53;;;;;;;28.45;8.25;;;;;;;0.47;95.59;102736.31;4999190;28;20054;-85
2022/01/21 06:24:23;;;;;;;26.10;8.57;;;;;;;0.40;95.58;102719.31;4999414;28;20094;-85
2022/01/21 06:26:50;;;;;;;33.53;8.93;;;;;;;0.48;95.69;102725.94;4999804;28;20078;-85
2022/01/21 06:29:16;;;;;;;22.88;8.18;;;;;;;0.50;95.14;102720.75;5001303;28;20082;-86
2022/01/21 06:31:43;;;;;;;20.67;8.18;;;;;;;0.52;95.16;102734.41;4999293;28;20058;-85
2022/01/21 06:34:11;;;;;;;20.70;7.50;;;;;;;0.58;95.36;102732.53;4998760;28;21932;-84
2022/01/21 06:36:37;;;;;;;19.33;7.90;;;;;;;0.57;94.83;102737.72;4998894;28;20110;-85
2022/01/21 06:39:04;;;;;;;23.52;7.68;;;;;;;0.57;94.71;102735.16;4998876;28;20106;-83
2022/01/21 06:41:32;;;;;;;27.95;8.18;;;;;;;0.69;94.61;102732.25;4997727;28;20051;-85
2022/01/21 06:44:02;;;;;;;20.52;8.40;;;;;;;0.62;94.67;102731.56;5000163;28;20454;-83
2022/01/21 06:46:28;;;;;;;28.42;8.63;;;;;;;0.57;94.60;102722.28;5003771;28;20061;-84
2022/01/21 06:48:55;;;;;;;22.92;8.70;;;;;;;0.57;94.77;102724.84;5004644;28;20081;-84
2022/01/21 06:51:23;;;;;;;28.25;9.38;;;;;;;0.65;95.03;102743.53;5003869;28;20050;-83
2022/01/21 06:53:50;;;;;;;25.45;8.60;;;;;;;0.57;95.09;102742.88;5002517;28;20141;-84
2022/01/21 06:56:16;;;;;;;25.10;8.63;;;;;;;0.61;95.30;102744.50;5001624;28;20053;-83
2022/01/21 06:58:43;;;;;;;26.85;9.90;;;;;;;0.68;95.21;102761.47;5003225;28;20502;-83
2022/01/21 07:01:10;;;;;;;25.33;9.85;;;;;;;0.71;94.69;102765.72;4994821;28;20066;-83
2022/01/21 07:03:36;;;;;;;23.70;9.98;;;;;;;0.68;95.22;102771.78;4985774;28;20078;-84
2022/01/21 07:06:03;;;;;;;24.35;9.43;;;;;;;0.72;95.20;102775.13;4984327;28;20075;-84
2022/01/21 07:08:34;;;;;;;27.05;10.93;;;;;;;0.65;94.97;102771.88;4983883;28;20473;-83
2022/01/21 07:11:00;;;;;;;21.42;9.27;;;;;;;0.64;94.92;102777.91;4985220;28;20090;-85
2022/01/21 07:13:27;;;;;;;28.33;10.25;;;;;;;0.57;95.84;102774.63;4988659;28;20074;-84
2022/01/21 07:15:54;;;;;;;26.45;9.93;;;;;;;0.50;95.76;102769.69;4987001;28;20415;-85
2022/01/21 07:18:22;;;;;;;23.95;10.68;;;;;;;0.45;95.86;102758.69;4988434;28;20066;-86
2022/01/21 07:20:49;;;;;;;24.08;10.63;;;;;;;0.44;96.45;102755.25;4991933;28;20053;-83
2022/01/21 07:23:16;;;;;;;22.23;10.88;;;;;;;0.48;96.01;102766.28;4991361;28;20047;-82
2022/01/21 07:25:44;;;;;;;26.88;10.88;;;;;;;0.40;96.23;102770.81;4987380;28;20082;-82
2022/01/21 07:28:11;;;;;;;27.20;11.20;;;;;;;0.42;96.20;102764.75;4989517;28;20062;-81
2022/01/21 07:30:37;;;;;;;26.42;11.95;;;;;;;0.37;96.42;102761.44;4991454;28;20094;-81
2022/01/21 07:33:04;;;;;;;27.50;11.18;;;;;;;0.22;96.57;102752.38;4994308;28;20046;-81
2022/01/21 07:35:30;;;;;;;23.90;10.98;;;;;;;0.33;96.39;102755.53;4983649;28;20055;-81
2022/01/21 07:37:59;;;;;;;24.33;11.95;;;;;;;0.32;96.70;102764.13;4983858;28;20141;-81
2022/01/21 07:40:25;;;;;;;28.50;12.10;;;;;;;0.29;96.92;102763.34;4980564;28;20066;-82
2022/01/21 07:42:53;;;;;;;26.25;12.32;;;;;;;0.35;96.60;102759.78;4982976;28;20082;-80
2022/01/21 07:45:20;;;;;;;25.27;11.48;;;;;;;0.43;96.64;102770.75;4982474;28;20069;-80
2022/01/21 07:47:47;;;;;;;23.55;11.05;;;;;;;0.44;96.54;102781.00;4982830;28;20047;-80
2022/01/21 07:50:14;;;;;;;28.17;11.38;;;;;;;0.33;96.41;102777.84;4996059;28;20541;-80
2022/01/21 07:52:41;;;;;;;30.08;12.25;;;;;;;0.37;96.42;102778.63;5000691;28;20093;-80
2022/01/21 07:55:08;;;;;;;27.63;11.18;;;;;;;0.40;96.45;102791.44;5001261;28;20042;-81
2022/01/21 07:57:39;;;;;;;26.75;11.50;;;;;;;0.43;96.41;102791.34;5002117;28;20082;-82
2022/01/21 08:00:22;;;;;;;27.75;11.57;;;;;;;0.30;96.55;102785.66;5002958;28;20050;-81
2022/01/21 08:02:50;;;;;;;24.92;11.40;;;;;;;0.37;96.54;102801.81;5001631;28;20054;-81
2022/01/21 08:05:18;;;;;;;26.85;11.48;;;;;;;0.40;96.34;102800.00;5003137;28;20058;-80
2022/01/21 08:07:47;;;;;;;24.77;11.85;;;;;;;0.43;96.22;102797.34;4984965;28;20054;-80
2022/01/21 08:10:14;;;;;;;21.65;11.88;;;;;;;0.42;96.31;102799.97;4988067;28;20130;-82
2022/01/21 08:12:41;;;;;;;23.67;11.68;;;;;;;0.39;96.57;102802.63;4982440;28;20129;-82
2022/01/21 08:15:10;;;;;;;28.55;12.77;;;;;;;0.50;96.14;102809.16;4982233;28;20042;-82
2022/01/21 08:17:37;;;;;;;25.17;12.13;;;;;;;0.48;96.30;102816.09;4994310;28;20082;-82
2022/01/21 08:20:04;;;;;;;30.90;13.30;;;;;;;0.51;96.17;102810.84;5003077;28;20099;-82
2022/01/21 08:22:31;;;;;;;28.77;13.32;;;;;;;0.63;96.36;102814.88;5002287;28;20046;-80
2022/01/21 08:24:58;;;;;;;30.02;12.35;;;;;;;0.77;95.66;102811.94;5001316;28;20137;-81
2022/01/21 08:27:25;;;;;;;25.92;10.90;;;;;;;0.82;95.21;102810.09;5001645;28;20422;-82
2022/01/21 08:29:52;;;;;;;20.55;11.38;;;;;;;1.04;94.93;102797.44;5001472;28;20050;-80
2022/01/21 08:32:21;;;;;;;29.75;11.57;;;;;;;1.02;94.62;102801.81;5000230;28;20053;-80
2022/01/21 08:34:49;;;;;;;24.58;10.85;;;;;;;1.03;94.63;102798.34;5001585;28;20053;-81
2022/01/21 08:37:16;;;;;;;23.38;11.38;;;;;;;1.20;94.18;102809.03;5001327;28;20046;-81
2022/01/21 08:39:43;;;;;;;24.27;11.10;;;;;;;1.22;93.66;102802.13;5001175;28;20074;-81
2022/01/21 08:42:10;;;;;;;18.25;10.18;;;;;;;1.10;93.78;102805.88;4999559;28;20066;-81
2022/01/21 08:44:37;;;;;;;23.05;11.32;;;;;;;1.21;93.82;102808.16;5000632;28;20081;-80
2022/01/21 08:47:04;;;;;;;22.48;11.20;;;;;;;1.10;93.81;102798.13;5002216;28;20054;-81
2022/01/21 08:49:32;;;;;;;19.13;10.80;;;;;;;1.10;94.00;102785.25;4999540;28;20061;-81
2022/01/21 08:52:00;;;;;;;21.30;11.32;;;;;;;1.20;93.97;102797.00;4999390;28;20122;-81
2022/01/21 08:54:28;;;;;;;27.00;11.25;;;;;;;1.21;93.62;102803.84;5000515;28;20054;-80
2022/01/21 08:56:55;;;;;;;29.08;12.10;;;;;;;1.29;93.99;102803.63;4999087;28;20050;-81
2022/01/21 08:59:26;;;;;;;21.55;11.07;;;;;;;1.33;93.60;102802.66;4999884;28;20078;-80
2022/01/21 09:01:53;;;;;;;22.85;12.57;;;;;;;1.35;92.96;102810.34;4999197;28;20518;-80
2022/01/21 09:04:20;;;;;;;21.83;10.98;;;;;;;1.33;93.25;102792.34;5000556;28;20546;-80
2022/01/21 09:06:48;;;;;;;21.42;10.98;;;;;;;1.32;93.09;102817.28;4999829;28;20427;-79
2022/01/21 09:09:15;;;;;;;21.10;11.23;;;;;;;1.46;93.18;102814.28;4999032;28;20061;-80
2022/01/21 09:11:41;;;;;;;19.67;10.90;;;;;;;1.51;93.00;102809.84;4999843;28;20042;-80
2022/01/21 09:14:08;;;;;;;23.52;11.35;;;;;;;1.49;93.07;102809.03;4998928;28;20058;-80
2022/01/21 09:16:35;;;;;;;22.17;10.88;;;;;;;1.44;93.04;102816.06;4999983;28;20053;-81
2022/01/21 09:19:03;;;;;;;22.38;11.32;;;;;;;1.43;93.16;102818.69;5001181;28;20073;-81
2022/01/21 09:21:31;;;;;;;22.60;10.85;;;;;;;1.36;93.41;102820.63;4999277;28;20073;-81
2022/01/21 09:24:00;;;;;;;19.10;10.93;;;;;;;1.34;93.49;102827.56;4999982;28;20137;-80
2022/01/21 09:26:27;;;;;;;22.75;11.57;;;;;;;1.38;93.65;102818.84;4999481;28;20137;-81
2022/01/21 09:28:54;;;;;;;23.63;12.65;;;;;;;1.45;93.32;102820.34;4999508;28;20054;-81
2022/01/21 09:31:21;;;;;;;24.17;12.48;;;;;;;1.41;93.50;102805.88;5002222;28;20130;-80
2022/01/21 09:33:49;;;;;;;26.58;13.25;;;;;;;1.41;93.60;102805.03;5000910;28;20053;-80
2022/01/21 09:36:18;;;;;;;20.90;11.45;;;;;;;1.46;93.79;102819.44;4995479;28;20511;-80
2022/01/21 09:38:46;;;;;;;20.80;11.35;;;;;;;1.62;93.38;102814.69;4984676;28;20051;-79
2022/01/21 09:41:17;;;;;;;26.20;13.48;;;;;;;1.67;93.85;102816.25;5002276;28;20137;-80
2022/01/21 09:43:47;;;;;;;26.65;13.45;;;;;;;1.77;93.10;102832.31;5013066;28;20070;-80
2022/01/21 09:46:14;;;;;;;25.00;11.88;;;;;;;1.74;93.31;102824.66;5013077;23;20074;-86
2022/01/21 09:48:51;;;;;;;21.85;11.18;;;;;;;1.85;92.66;102826.94;5002891;28;20108;-87
2022/01/21 09:51:19;;;;;;;22.65;11.95;;;;;;;1.83;93.06;102813.22;5003070;28;20110;-86
2022/01/21 09:53:46;;;;;;;26.75;12.00;;;;;;;1.91;92.73;102806.91;5004025;28;20057;-86
2022/01/21 09:56:16;;;;;;;26.58;12.15;;;;;;;2.14;92.07;102807.94;5003286;28;20081;-89
2022/01/21 09:58:46;;;;;;;24.83;13.40;;;;;;;2.13;92.01;102795.91;5003335;28;20050;-85
2022/01/21 10:01:13;;;;;;;28.92;14.05;;;;;;;2.41;91.58;102819.09;5015950;28;20038;-84
2022/01/21 10:03:43;;;;;;;22.17;12.45;;;;;;;2.38;91.32;102809.72;5015271;28;20081;-86
2022/01/21 10:06:12;;;;;;;21.85;12.48;;;;;;;2.24;91.02;102796.44;5012247;28;20050;-88
2022/01/21 10:08:41;;;;;;;22.23;12.65;;;;;;;2.43;91.08;102818.16;5005911;28;20054;-87
2022/01/21 10:11:09;;;;;;;20.00;10.95;;;;;;;2.62;90.01;102819.25;5006619;28;20054;-87
2022/01/21 10:13:37;;;;;;;20.35;11.15;;;;;;;2.83;89.78;102812.53;5006208;28;20054;-86
2022/01/21 10:16:06;;;;;;;22.63;11.20;;;;;;;2.91;89.19;102828.59;5009315;28;20062;-86
2022/01/21 10:18:33;;;;;;;19.27;10.05;;;;;;;2.88;88.55;102817.50;5014559;28;20030;-86
2022/01/21 10:21:02;;;;;;;20.50;10.45;;;;;;;2.67;89.27;102813.94;5018143;28;20034;-85
2022/01/21 10:23:31;;;;;;;22.45;10.82;;;;;;;2.69;88.99;102825.06;5018687;28;20050;-88
2022/01/21 10:26:02;;;;;;;17.73;11.15;;;;;;;2.82;89.26;102831.53;5018970;28;20070;-86
2022/01/21 10:28:30;;;;;;;22.25;10.57;;;;;;;2.79;89.34;102823.03;5018551;28;20038;-86
2022/01/21 10:31:11;;;;;;;20.30;10.52;;;;;;;2.94;89.05;102831.06;5019002;28;20070;-87
2022/01/21 10:33:42;;;;;;;17.10;10.55;;;;;;;2.82;89.13;102821.19;5018834;28;20034;-88
2022/01/21 10:36:15;;;;;;;18.95;10.57;;;;;;;2.84;88.87;102834.88;5018935;28;20046;-87
2022/01/21 10:38:46;;;;;;;24.27;9.80;;;;;;;2.91;88.93;102831.19;5020103;28;20042;-86
2022/01/21 10:41:15;;;;;;;17.73;9.80;;;;;;;2.87;88.77;102839.94;5019573;28;20062;-86
2022/01/21 10:43:42;;;;;;;21.58;11.45;;;;;;;2.84;89.29;102832.28;5018791;28;20050;-86
2022/01/21 10:46:16;;;;;;;16.60;10.38;;;;;;;2.99;88.69;102842.09;5018530;28;20041;-85
2022/01/21 10:49:04;;;;;;;18.85;10.32;;;;;;;3.07;88.77;102833.25;5019285;28;20074;-87
2022/01/21 10:51:33;;;;;;;22.13;10.77;;;;;;;3.02;89.15;102835.13;5019923;28;20034;-86
2022/01/21 10:54:15;;;;;;;22.15;12.10;;;;;;;3.13;89.04;102838.19;5018886;28;20046;-86
2022/01/21 10:56:41;;;;;;;20.88;10.75;;;;;;;3.21;88.78;102837.03;5018552;28;20062;-87
2022/01/21 10:59:08;;;;;;;20.25;10.85;;;;;;;3.33;88.54;102843.47;5018997;28;20073;-86
2022/01/21 11:01:36;;;;;;;21.80;10.75;;;;;;;3.49;87.98;102830.84;5019369;28;20055;-87
2022/01/21 11:04:09;;;;;;;18.92;10.57;;;;;;;3.40;87.73;102826.84;5017852;28;20050;-87
2022/01/21 11:06:43;;;;;;;16.33;7.97;;;;;;;3.51;87.59;102824.69;5008925;28;20073;-88
2022/01/21 11:09:21;;;;;;;13.85;9.57;;;;;;;3.54;87.21;102811.66;5011020;28;20447;-87
2022/01/21 11:11:49;;;;;;;19.63;9.45;;;;;;;3.43;87.15;102806.03;5008733;28;20492;-87
2022/01/21 11:14:18;;;;;;;17.45;9.70;;;;;;;3.47;87.27;102804.16;5004414;28;20133;-87
2022/01/21 11:16:47;;;;;;;19.65;9.50;;;;;;;3.52;88.06;102812.59;5004361;28;20385;-88
2022/01/21 11:19:26;;;;;;;22.10;9.90;;;;;;;3.55;87.47;102810.75;5003827;28;20058;-88
2022/01/21 11:21:56;;;;;;;20.35;9.90;;;;;;;3.63;87.84;102808.72;5003685;28;20050;-88
2022/01/21 11:24:26;;;;;;;18.08;9.57;;;;;;;3.73;88.13;102803.19;5003969;28;20046;-88
2022/01/21 11:27:15;;;;;;;18.80;9.23;;;;;;;3.89;87.13;102812.03;5005478;28;20059;-88
2022/01/21 11:29:43;;;;;;;17.45;9.18;;;;;;;3.95;86.50;102802.28;4997805;28;20078;-86
2022/01/21 11:32:12;;;;;;;21.88;8.68;;;;;;;4.03;86.31;102808.91;5003305;28;20503;-87
2022/01/21 11:34:41;;;;;;;14.55;8.38;;;;;;;4.01;85.94;102808.97;5004339;28;20043;-87
2022/01/21 11:37:08;;;;;;;17.58;8.55;;;;;;;4.17;86.73;102806.63;5002568;28;20070;-87
2022/01/21 11:39:36;;;;;;;16.25;7.97;;;;;;;4.00;86.04;102794.34;5004369;28;20059;-88
2022/01/21 11:42:05;;;;;;;14.80;7.53;;;;;;;3.92;86.29;102799.81;5003808;28;20137;-87
2022/01/21 11:44:36;;;;;;;19.77;8.27;;;;;;;3.91;86.43;102805.06;5004533;28;20530;-87
2022/01/21 11:47:16;;;;;;;18.67;8.25;;;;;;;3.95;86.69;102798.84;5004370;28;20130;-87
2022/01/21 11:49:54;;;;;;;16.23;8.75;;;;;;;3.89;87.30;102791.31;5004242;28;20454;-87
2022/01/21 11:52:21;;;;;;;20.38;9.32;;;;;;;3.88;87.62;102792.22;5004242;28;20057;-87
2022/01/21 11:54:49;;;;;;;19.73;8.60;;;;;;;4.03;88.09;102791.63;5003847;28;20054;-88
2022/01/21 11:57:27;;;;;;;19.67;8.70;;;;;;;3.93;87.42;102788.56;5003670;28;20046;-89
2022/01/21 12:00:01;;;;;;;14.55;7.30;;;;;;;3.91;87.12;102786.91;5003937;28;20054;-88
2022/01/21 12:02:30;;;;;;;16.92;8.40;;;;;;;3.95;86.94;102771.19;5003255;28;20097;-87
2022/01/21 12:05:00;;;;;;;18.42;8.00;;;;;;;4.05;86.81;102774.28;5004688;28;20060;-88
2022/01/21 12:07:57;;;;;;;21.00;8.38;;;;;;;4.11;85.81;102779.22;5003725;28;20055;-88
2022/01/21 12:10:33;;;;;;;21.15;7.95;;;;;;;4.12;85.98;102773.13;5003017;28;20109;-87